createdAt,value
2018-11-29T00:00:31.570Z,15.87
2018-11-29T00:03:00.144Z,17.10
2018-11-29T00:05:28.759Z,16.70
2018-11-29T00:07:57.312Z,16.77
2018-11-29T00:10:25.874Z,15.70
2018-11-29T00:12:54.392Z,16.17
2018-11-29T00:15:22.963Z,15.53
2018-11-29T00:17:51.487Z,16.63
2018-11-29T00:20:20.743Z,15.60
2018-11-29T00:22:50.227Z,16.23
2018-11-29T00:25:19.464Z,16.77
2018-11-29T00:27:48.196Z,15.17
2018-11-29T00:30:20.651Z,15.27
2018-11-29T00:32:49.683Z,14.27
2018-11-29T00:35:18.582Z,15.00
2018-11-29T00:37:47.356Z,15.27
2018-11-29T00:40:17.798Z,13.97
2018-11-29T00:42:46.306Z,15.13
2018-11-29T00:45:15.694Z,14.83
2018-11-29T00:47:44.835Z,14.03
2018-11-29T00:50:14.419Z,14.67
2018-11-29T00:52:43.864Z,13.90
2018-11-29T00:55:14.714Z,15.63
2018-11-29T00:57:43.223Z,15.83
2018-11-29T01:00:17.618Z,15.37
2018-11-29T01:02:46.152Z,14.67
2018-11-29T01:05:14.702Z,15.20
2018-11-29T01:07:43.233Z,15.00
2018-11-29T01:10:12.793Z,14.53
2018-11-29T01:12:41.535Z,16.00
2018-11-29T01:15:15.987Z,14.73
2018-11-29T01:17:45.456Z,14.53
2018-11-29T01:20:16.056Z,15.40
2018-11-29T01:22:44.563Z,14.40
2018-11-29T01:25:14.139Z,14.73
2018-11-29T01:27:43.716Z,14.40
2018-11-29T01:30:15.124Z,14.90
2018-11-29T01:32:44.343Z,16.13
2018-11-29T01:35:14.908Z,14.53
2018-11-29T01:37:43.411Z,16.40
2018-11-29T01:40:19.968Z,15.60
2018-11-29T01:42:50.343Z,15.43
2018-11-29T01:45:18.891Z,15.10
2018-11-29T01:47:47.434Z,14.97
2018-11-29T01:50:16.108Z,14.83
2018-11-29T01:52:44.623Z,14.67
2018-11-29T01:55:13.212Z,15.90
2018-11-29T01:57:41.751Z,14.30
2018-11-29T02:00:14.374Z,15.57
2018-11-29T02:02:43.169Z,17.60
2018-11-29T02:05:13.146Z,15.07
2018-11-29T02:07:41.717Z,16.63
2018-11-29T02:10:18.526Z,15.90
2018-11-29T02:12:47.152Z,16.33
2018-11-29T02:15:15.700Z,15.57
2018-11-29T02:17:44.268Z,15.17
2018-11-29T02:20:14.344Z,15.93
2018-11-29T02:22:43.120Z,16.23
2018-11-29T02:25:11.689Z,18.57
2018-11-29T02:27:40.253Z,16.70
2018-11-29T02:30:15.117Z,16.83
2018-11-29T02:32:43.688Z,16.43
2018-11-29T02:35:12.213Z,16.40
2018-11-29T02:37:40.777Z,15.47
2018-11-29T02:40:13.309Z,17.27
2018-11-29T02:42:42.364Z,17.20
2018-11-29T02:45:15.733Z,16.80
2018-11-29T02:47:44.305Z,15.47
2018-11-29T02:50:12.864Z,16.20
2018-11-29T02:52:41.446Z,17.47
2018-11-29T02:55:11.106Z,16.27
2018-11-29T02:57:40.122Z,17.77
2018-11-29T03:00:15.247Z,15.83
2018-11-29T03:02:43.885Z,16.17
2018-11-29T03:05:12.520Z,16.07
2018-11-29T03:07:41.156Z,16.40
2018-11-29T03:10:10.951Z,15.63
2018-11-29T03:12:40.029Z,16.40
2018-11-29T03:15:15.207Z,16.33
2018-11-29T03:17:44.460Z,16.33
2018-11-29T03:20:14.199Z,15.67
2018-11-29T03:22:42.943Z,14.50
2018-11-29T03:25:17.976Z,14.47
2018-11-29T03:27:46.758Z,16.43
2018-11-29T03:30:16.729Z,14.30
2018-11-29T03:32:45.283Z,14.27
2018-11-29T03:35:14.541Z,14.90
2018-11-29T03:37:43.165Z,15.43
2018-11-29T03:40:15.556Z,14.77
2018-11-29T03:42:44.717Z,14.27
2018-11-29T03:45:15.212Z,13.80
2018-11-29T03:47:44.056Z,14.30
2018-11-29T03:50:13.815Z,14.40
2018-11-29T03:52:42.354Z,15.17
2018-11-29T03:55:11.199Z,15.50
2018-11-29T03:57:40.020Z,16.00
2018-11-29T04:00:14.757Z,16.43
2018-11-29T04:02:43.823Z,15.53
2018-11-29T04:05:12.347Z,15.30
2018-11-29T04:07:40.942Z,15.87
2018-11-29T04:10:11.042Z,14.43
2018-11-29T04:12:39.620Z,13.83
2018-11-29T04:15:09.667Z,14.20
2018-11-29T04:17:40.820Z,14.00
2018-11-29T04:20:08.906Z,14.40
2018-11-29T04:22:37.495Z,14.60
2018-11-29T04:25:07.236Z,14.83
2018-11-29T04:27:35.827Z,14.80
2018-11-29T04:30:04.876Z,15.20
2018-11-29T04:32:34.166Z,16.67
2018-11-29T04:35:02.740Z,17.23
2018-11-29T04:37:31.297Z,15.60
2018-11-29T04:39:59.866Z,14.03
2018-11-29T04:42:28.400Z,15.47
2018-11-29T04:44:56.959Z,16.07
2018-11-29T04:47:25.620Z,14.83
2018-11-29T04:49:54.180Z,14.73
2018-11-29T04:52:22.712Z,15.27
2018-11-29T04:54:51.272Z,15.23
2018-11-29T04:57:19.812Z,15.77
2018-11-29T04:59:48.375Z,15.77
2018-11-29T05:02:16.936Z,14.73
2018-11-29T05:04:45.503Z,14.30
2018-11-29T05:07:14.071Z,15.47
2018-11-29T05:09:42.668Z,15.27
2018-11-29T05:12:11.216Z,15.63
2018-11-29T05:14:39.784Z,15.60
2018-11-29T05:17:08.336Z,15.83
2018-11-29T05:19:36.956Z,16.27
2018-11-29T05:22:05.533Z,15.30
2018-11-29T05:24:34.128Z,15.90
2018-11-29T05:27:02.675Z,15.37
2018-11-29T05:29:31.231Z,15.13
2018-11-29T05:31:59.755Z,14.47
2018-11-29T05:34:28.332Z,15.83
2018-11-29T05:36:56.867Z,15.53
2018-11-29T05:39:25.433Z,15.90
2018-11-29T05:41:53.982Z,15.00
2018-11-29T05:44:22.873Z,16.27
2018-11-29T05:46:51.416Z,16.17
2018-11-29T05:49:19.963Z,16.00
2018-11-29T05:51:48.515Z,15.63
2018-11-29T05:54:17.459Z,17.20
2018-11-29T05:56:46.047Z,15.93
2018-11-29T05:59:14.584Z,17.70
2018-11-29T06:01:45.068Z,16.70
2018-11-29T06:04:13.684Z,17.60
2018-11-29T06:06:42.262Z,17.77
2018-11-29T06:09:11.034Z,17.67
2018-11-29T06:11:39.860Z,17.87
2018-11-29T06:14:08.853Z,16.83
2018-11-29T06:16:38.174Z,18.90
2018-11-29T06:19:08.086Z,17.93
2018-11-29T06:21:36.636Z,17.70
2018-11-29T06:24:05.481Z,17.37
2018-11-29T06:26:34.051Z,18.33
2018-11-29T06:29:02.588Z,17.87
2018-11-29T06:31:31.168Z,18.43
2018-11-29T06:33:59.693Z,17.77
2018-11-29T06:36:28.251Z,16.27
2018-11-29T06:38:56.787Z,17.47
2018-11-29T06:41:30.189Z,17.00
2018-11-29T06:43:59.017Z,17.20
2018-11-29T06:46:27.571Z,17.00
2018-11-29T06:49:00.796Z,17.73
2018-11-29T06:51:30.097Z,18.23
2018-11-29T06:53:59.519Z,20.10
2018-11-29T06:56:28.383Z,18.13
2018-11-29T06:58:57.297Z,17.43
2018-11-29T07:01:26.235Z,17.80
2018-11-29T07:03:55.798Z,19.77
2018-11-29T07:06:24.375Z,20.33
2018-11-29T07:08:52.968Z,19.90
2018-11-29T07:11:21.518Z,17.87
2018-11-29T07:13:50.067Z,18.60
2018-11-29T07:16:18.629Z,19.30
2018-11-29T07:18:47.599Z,17.90
2018-11-29T07:21:28.681Z,18.43
2018-11-29T07:23:59.884Z,19.20
2018-11-29T07:26:28.893Z,17.87
2018-11-29T07:28:57.767Z,18.50
2018-11-29T07:31:26.639Z,18.20
2018-11-29T07:33:55.193Z,17.37
2018-11-29T07:36:24.382Z,18.57
2018-11-29T07:38:53.335Z,18.47
2018-11-29T07:41:23.017Z,19.53
2018-11-29T07:43:51.647Z,19.13
2018-11-29T07:46:20.500Z,19.40
2018-11-29T07:48:52.321Z,19.13
2018-11-29T07:51:21.001Z,18.33
2018-11-29T07:53:49.550Z,20.03
2018-11-29T07:56:18.186Z,20.90
2018-11-29T07:58:51.568Z,19.03
2018-11-29T08:01:16.708Z,19.77
2018-11-29T08:03:45.603Z,19.97
2018-11-29T08:06:15.796Z,18.80
2018-11-29T08:08:51.696Z,19.23
2018-11-29T08:11:24.918Z,19.80
2018-11-29T08:13:57.840Z,18.03
2018-11-29T08:16:31.234Z,18.20
2018-11-29T08:19:04.254Z,19.43
2018-11-29T08:21:35.756Z,19.23
2018-11-29T08:24:05.095Z,17.87
2018-11-29T08:26:33.620Z,18.43
2018-11-29T08:29:02.523Z,18.20
2018-11-29T08:31:31.051Z,17.53
2018-11-29T08:33:59.899Z,18.53
2018-11-29T08:36:28.877Z,17.00
2018-11-29T08:38:57.512Z,18.63
2018-11-29T08:41:26.040Z,18.10
2018-11-29T08:43:54.597Z,18.10
2018-11-29T08:46:23.868Z,18.47
2018-11-29T08:48:52.438Z,19.30
2018-11-29T08:51:20.996Z,17.57
2018-11-29T08:53:49.721Z,18.90
2018-11-29T08:56:19.634Z,18.63
2018-11-29T08:58:50.907Z,21.50
2018-11-29T09:01:19.584Z,22.37
2018-11-29T09:03:48.139Z,19.47
2018-11-29T09:06:16.723Z,18.80
2018-11-29T09:08:45.601Z,18.90
2018-11-29T09:11:15.091Z,21.33
2018-11-29T09:13:43.655Z,19.93
2018-11-29T09:16:12.530Z,17.63
2018-11-29T09:18:41.091Z,16.80
2018-11-29T09:21:09.631Z,18.27
2018-11-29T09:23:38.379Z,18.53
2018-11-29T09:26:08.059Z,19.33
2018-11-29T09:28:36.990Z,18.00
2018-11-29T09:31:06.613Z,18.23
2018-11-29T09:33:35.368Z,18.30
2018-11-29T09:36:03.948Z,17.73
2018-11-29T09:38:32.474Z,16.63
2018-11-29T09:41:01.039Z,17.33
2018-11-29T09:43:29.560Z,16.03
2018-11-29T09:46:01.336Z,16.37
2018-11-29T09:48:30.050Z,18.07
2018-11-29T09:50:59.004Z,18.37
2018-11-29T09:53:27.548Z,17.43
2018-11-29T09:55:56.101Z,22.37
2018-11-29T09:58:24.635Z,28.87
2018-11-29T10:00:53.383Z,31.33
2018-11-29T10:03:21.906Z,19.37
2018-11-29T10:05:50.568Z,19.07
2018-11-29T10:08:25.889Z,17.30
2018-11-29T10:10:48.875Z,15.43
2018-11-29T10:13:17.620Z,16.43
2018-11-29T10:15:46.185Z,16.17
2018-11-29T10:18:14.957Z,16.53
2018-11-29T10:20:43.519Z,16.23
2018-11-29T10:23:12.055Z,16.00
2018-11-29T10:25:41.632Z,14.37
2018-11-29T10:28:12.798Z,16.27
2018-11-29T10:30:47.289Z,15.93
2018-11-29T10:33:15.836Z,16.00
2018-11-29T10:35:44.414Z,15.63
2018-11-29T10:38:13.948Z,16.50
2018-11-29T10:40:43.090Z,15.70
2018-11-29T10:43:11.987Z,15.30
2018-11-29T10:45:40.564Z,14.60
2018-11-29T10:48:12.977Z,15.57
2018-11-29T10:50:41.547Z,15.70
2018-11-29T10:53:10.472Z,15.27
2018-11-29T10:55:39.251Z,16.10
2018-11-29T10:58:09.640Z,16.20
2018-11-29T11:00:43.616Z,16.00
2018-11-29T11:03:18.715Z,15.13
2018-11-29T11:05:52.249Z,14.40
2018-11-29T11:08:21.626Z,15.13
2018-11-29T11:10:50.484Z,15.63
2018-11-29T11:13:19.069Z,14.80
2018-11-29T11:15:47.676Z,15.50
2018-11-29T11:18:17.023Z,15.67
2018-11-29T11:20:45.917Z,15.73
2018-11-29T11:23:14.560Z,15.60
2018-11-29T11:25:43.315Z,14.17
2018-11-29T11:28:11.836Z,14.10
2018-11-29T11:30:42.978Z,14.20
2018-11-29T11:33:11.604Z,17.07
2018-11-29T11:35:40.162Z,15.20
2018-11-29T11:38:09.813Z,29.37
2018-11-29T11:40:41.110Z,15.90
2018-11-29T11:43:15.672Z,14.77
2018-11-29T11:45:48.463Z,14.93
2018-11-29T11:48:21.676Z,14.50
2018-11-29T11:50:55.080Z,14.93
2018-11-29T11:53:27.438Z,14.53
2018-11-29T11:55:56.141Z,15.43
2018-11-29T11:58:24.694Z,15.43
2018-11-29T12:00:53.302Z,16.47
2018-11-29T12:03:21.843Z,16.27
2018-11-29T12:05:50.769Z,15.70
2018-11-29T12:08:19.417Z,16.13
2018-11-29T12:10:48.099Z,15.97
2018-11-29T12:13:17.215Z,16.10
2018-11-29T12:15:46.120Z,16.00
2018-11-29T12:18:14.758Z,15.70
2018-11-29T12:20:58.835Z,15.47
2018-11-29T12:23:37.803Z,16.40
2018-11-29T12:26:10.165Z,15.90
2018-11-29T12:28:41.994Z,16.10
2018-11-29T12:31:13.624Z,15.03
2018-11-29T12:33:46.392Z,15.60
2018-11-29T12:36:15.262Z,15.27
2018-11-29T12:38:44.140Z,15.37
2018-11-29T12:41:12.730Z,14.57
2018-11-29T12:43:41.357Z,14.83
2018-11-29T12:46:09.951Z,14.97
2018-11-29T12:48:39.718Z,14.30
2018-11-29T12:51:08.652Z,15.00
2018-11-29T12:53:37.484Z,14.57
2018-11-29T12:56:06.402Z,13.73
2018-11-29T12:58:40.469Z,14.00
2018-11-29T13:01:09.058Z,13.27
2018-11-29T13:03:37.608Z,14.10
2018-11-29T13:06:06.822Z,13.13
2018-11-29T13:08:36.701Z,14.57
2018-11-29T13:11:10.635Z,13.17
2018-11-29T13:13:35.737Z,13.90
2018-11-29T13:16:04.319Z,12.60
2018-11-29T13:18:35.919Z,12.57
2018-11-29T13:21:06.473Z,12.00
2018-11-29T13:23:35.124Z,13.30
2018-11-29T13:26:03.791Z,14.13
2018-11-29T13:28:32.520Z,14.63
2018-11-29T13:31:01.080Z,13.27
2018-11-29T13:33:29.733Z,13.40
2018-11-29T13:35:58.328Z,12.57
2018-11-29T13:38:26.892Z,12.73
2018-11-29T13:40:55.598Z,13.30
2018-11-29T13:43:25.301Z,11.53
2018-11-29T13:45:53.851Z,13.23
2018-11-29T13:48:22.666Z,11.63
2018-11-29T13:50:52.006Z,12.33
2018-11-29T13:53:21.032Z,12.10
2018-11-29T13:55:49.607Z,12.43
2018-11-29T13:58:19.427Z,11.73
2018-11-29T14:00:48.422Z,12.50
2018-11-29T14:03:17.634Z,12.80
2018-11-29T14:05:46.282Z,12.77
2018-11-29T14:08:14.957Z,11.97
2018-11-29T14:10:43.990Z,12.40
2018-11-29T14:13:12.579Z,12.70
2018-11-29T14:15:41.160Z,12.00
2018-11-29T14:18:09.902Z,12.17
2018-11-29T14:20:38.487Z,12.43
2018-11-29T14:23:07.824Z,12.57
2018-11-29T14:25:36.431Z,11.80
2018-11-29T14:28:05.373Z,12.30
2018-11-29T14:30:34.043Z,12.70
2018-11-29T14:33:02.648Z,12.97
2018-11-29T14:35:31.252Z,12.37
2018-11-29T14:37:59.822Z,12.37
2018-11-29T14:40:30.100Z,12.43
2018-11-29T14:42:58.668Z,13.17
2018-11-29T14:45:27.596Z,11.73
2018-11-29T14:47:56.575Z,12.30
2018-11-29T14:50:31.718Z,12.27
2018-11-29T14:53:00.528Z,12.23
2018-11-29T14:55:29.097Z,11.43
2018-11-29T14:57:57.668Z,11.73
2018-11-29T15:00:26.211Z,11.80
2018-11-29T15:02:55.396Z,12.03
2018-11-29T15:05:27.232Z,12.07
2018-11-29T15:07:55.855Z,12.73
2018-11-29T15:10:24.507Z,12.60
2018-11-29T15:12:53.117Z,12.50
2018-11-29T15:15:22.495Z,12.43
2018-11-29T15:17:52.329Z,12.47
2018-11-29T15:20:28.483Z,13.13
2018-11-29T15:22:57.119Z,12.87
2018-11-29T15:25:25.689Z,12.70
2018-11-29T15:27:54.344Z,11.73
2018-11-29T15:30:23.601Z,12.73
2018-11-29T15:32:52.172Z,11.43
2018-11-29T15:35:20.757Z,12.50
2018-11-29T15:37:49.320Z,11.90
2018-11-29T15:40:18.456Z,12.23
2018-11-29T15:42:47.938Z,12.30
2018-11-29T15:45:19.735Z,13.77
2018-11-29T15:47:48.467Z,13.30
2018-11-29T15:50:17.496Z,14.33
2018-11-29T15:52:46.429Z,13.40
2018-11-29T15:55:17.795Z,21.40
2018-11-29T15:57:48.027Z,12.07
2018-11-29T16:00:19.735Z,12.67
2018-11-29T16:02:48.972Z,11.20
2018-11-29T16:05:17.543Z,10.93
2018-11-29T16:07:46.151Z,11.80
2018-11-29T16:10:16.020Z,13.33
2018-11-29T16:12:44.596Z,10.77
2018-11-29T16:15:14.149Z,12.13
2018-11-29T16:17:43.705Z,19.70
2018-11-29T16:20:17.140Z,11.80
2018-11-29T16:22:45.404Z,10.80
2018-11-29T16:25:14.196Z,10.90
2018-11-29T16:27:42.755Z,11.77
2018-11-29T16:30:20.635Z,11.37
2018-11-29T16:32:49.187Z,11.13
2018-11-29T16:35:17.727Z,17.77
2018-11-29T16:37:46.296Z,19.70
2018-11-29T16:40:14.831Z,14.07
2018-11-29T16:42:43.380Z,11.90
2018-11-29T16:45:13.205Z,11.63
2018-11-29T16:47:42.679Z,12.57
2018-11-29T16:50:13.425Z,12.63
2018-11-29T16:52:42.011Z,11.90
2018-11-29T16:55:11.541Z,12.90
2018-11-29T16:57:41.961Z,12.93
2018-11-29T17:00:16.441Z,16.37
2018-11-29T17:02:45.024Z,14.33
2018-11-29T17:05:14.376Z,17.83
2018-11-29T17:07:43.010Z,16.17
2018-11-29T17:10:14.927Z,22.13
2018-11-29T17:12:45.059Z,32.37
2018-11-29T17:15:15.166Z,25.33
2018-11-29T17:17:43.737Z,17.60
2018-11-29T17:20:13.562Z,15.30
2018-11-29T17:22:42.157Z,15.30
2018-11-29T17:25:11.994Z,13.30
2018-11-29T17:27:40.555Z,14.10
2018-11-29T17:30:26.356Z,13.43
2018-11-29T17:32:56.938Z,16.40
2018-11-29T17:35:25.525Z,16.13
2018-11-29T17:37:55.571Z,17.87
2018-11-29T17:40:24.112Z,17.77
2018-11-29T17:42:53.666Z,16.40
2018-11-29T17:45:25.828Z,16.07
2018-11-29T17:47:57.544Z,17.03
2018-11-29T17:50:30.702Z,19.73
2018-11-29T17:52:59.267Z,14.50
2018-11-29T17:55:27.872Z,16.73
2018-11-29T17:57:56.429Z,14.00
2018-11-29T18:00:28.560Z,12.47
2018-11-29T18:02:57.108Z,11.27
2018-11-29T18:05:25.684Z,12.50
2018-11-29T18:07:54.267Z,13.57
2018-11-29T18:10:24.084Z,13.60
2018-11-29T18:12:55.304Z,13.60
2018-11-29T18:15:25.451Z,13.80
2018-11-29T18:17:53.986Z,13.80
2018-11-29T18:20:22.548Z,15.00
2018-11-29T18:22:51.077Z,16.50
2018-11-29T18:25:19.668Z,16.20
2018-11-29T18:27:49.658Z,16.80
2018-11-29T18:30:21.059Z,14.97
2018-11-29T18:32:49.603Z,14.50
2018-11-29T18:35:18.216Z,14.27
2018-11-29T18:37:47.655Z,14.97
2018-11-29T18:40:18.275Z,14.97
2018-11-29T18:42:50.333Z,14.10
2018-11-29T18:45:19.568Z,12.63
2018-11-29T18:47:49.334Z,13.07
2018-11-29T18:50:18.962Z,12.77
2018-11-29T18:52:47.634Z,12.37
2018-11-29T18:55:16.445Z,13.23
2018-11-29T18:57:44.963Z,17.30
2018-11-29T19:00:45.993Z,16.10
2018-11-29T19:03:14.517Z,13.67
2018-11-29T19:05:43.064Z,12.10
2018-11-29T19:08:11.631Z,11.73
2018-11-29T19:10:40.171Z,11.63
2018-11-29T19:13:12.836Z,11.87
2018-11-29T19:15:41.441Z,11.87
2018-11-29T19:18:10.927Z,11.70
2018-11-29T19:20:39.115Z,11.13
2018-11-29T19:23:07.806Z,11.53
2018-11-29T19:25:36.808Z,10.53
2018-11-29T19:28:06.344Z,9.83
2018-11-29T19:30:35.127Z,10.90
2018-11-29T19:33:11.251Z,11.40
2018-11-29T19:35:39.858Z,10.77
2018-11-29T19:38:08.434Z,11.00
2018-11-29T19:40:37.155Z,12.30
2018-11-29T19:43:06.723Z,11.93
2018-11-29T19:45:35.484Z,11.27
2018-11-29T19:48:04.223Z,12.17
2018-11-29T19:50:32.793Z,12.63
2018-11-29T19:53:01.968Z,11.93
2018-11-29T19:55:32.230Z,12.40
2018-11-29T19:58:01.368Z,10.90
2018-11-29T20:00:29.948Z,10.10
2018-11-29T20:02:58.687Z,9.60
2018-11-29T20:05:27.248Z,9.87
2018-11-29T20:07:55.860Z,10.67
2018-11-29T20:10:24.494Z,10.20
2018-11-29T20:13:00.014Z,10.40
2018-11-29T20:15:28.672Z,9.80
2018-11-29T20:17:57.322Z,10.70
2018-11-29T20:20:25.924Z,10.63
2018-11-29T20:22:54.479Z,9.23
2018-11-29T20:25:24.525Z,10.07
2018-11-29T20:27:53.070Z,9.83
2018-11-29T20:30:22.729Z,9.40
2018-11-29T20:32:53.472Z,9.60
2018-11-29T20:35:22.060Z,10.60
2018-11-29T20:37:51.588Z,9.93
2018-11-29T20:40:24.440Z,10.47
2018-11-29T20:42:56.419Z,11.67
2018-11-29T20:45:29.187Z,10.40
2018-11-29T20:47:57.793Z,10.60
2018-11-29T20:50:27.785Z,10.63
2018-11-29T20:52:58.068Z,9.77
2018-11-29T20:55:28.943Z,9.03
2018-11-29T20:57:57.543Z,9.30
2018-11-29T21:00:26.092Z,8.43
2018-11-29T21:02:54.684Z,9.30
2018-11-29T21:05:24.919Z,10.57
2018-11-29T21:07:57.128Z,9.73
2018-11-29T21:10:26.006Z,9.10
2018-11-29T21:12:54.577Z,10.13
2018-11-29T21:15:23.121Z,9.80
2018-11-29T21:17:51.675Z,8.93
2018-11-29T21:20:21.460Z,8.80
2018-11-29T21:22:51.140Z,9.30
2018-11-29T21:25:21.200Z,10.23
2018-11-29T21:27:49.768Z,10.03
2018-11-29T21:30:18.355Z,9.60
2018-11-29T21:32:48.072Z,12.00
2018-11-29T21:35:17.984Z,10.13
2018-11-29T21:37:46.498Z,11.10
2018-11-29T21:40:25.039Z,11.03
2018-11-29T21:42:53.628Z,9.90
2018-11-29T21:45:22.309Z,10.90
2018-11-29T21:47:50.968Z,11.43
2018-11-29T21:50:20.003Z,10.73
2018-11-29T21:52:48.536Z,11.30
2018-11-29T21:55:17.110Z,11.70
2018-11-29T21:57:45.632Z,10.97
2018-11-29T22:00:19.539Z,11.17
2018-11-29T22:02:50.431Z,10.53
2018-11-29T22:05:18.979Z,11.13
2018-11-29T22:07:47.579Z,11.33
2018-11-29T22:10:16.148Z,9.50
2018-11-29T22:12:44.679Z,9.17
2018-11-29T22:15:13.468Z,9.43
2018-11-29T22:18:23.611Z,8.60
2018-11-29T22:20:56.508Z,10.37
2018-11-29T22:23:25.032Z,9.33
2018-11-29T22:25:55.495Z,7.93
2018-11-29T22:28:24.019Z,11.27
2018-11-29T22:30:52.648Z,13.20
2018-11-29T22:33:21.161Z,14.73
2018-11-29T22:35:49.732Z,13.07
2018-11-29T22:38:18.299Z,12.13
2018-11-29T22:40:46.867Z,11.20
2018-11-29T22:43:15.402Z,10.47
2018-11-29T22:45:43.961Z,11.23
2018-11-29T22:48:12.489Z,11.47
2018-11-29T22:50:41.055Z,11.50
2018-11-29T22:53:09.576Z,11.70
2018-11-29T22:55:38.145Z,10.03
2018-11-29T22:58:06.904Z,10.80
2018-11-29T23:00:39.431Z,11.80
2018-11-29T23:03:08.045Z,11.00
2018-11-29T23:05:36.627Z,8.73
2018-11-29T23:08:05.381Z,7.93
2018-11-29T23:10:33.964Z,7.50
2018-11-29T23:13:02.572Z,7.77
2018-11-29T23:15:31.206Z,8.23
2018-11-29T23:17:59.754Z,7.57
2018-11-29T23:20:28.350Z,8.67
2018-11-29T23:22:56.896Z,9.27
2018-11-29T23:25:25.526Z,10.37
2018-11-29T23:27:54.434Z,9.07
2018-11-29T23:30:23.004Z,9.80
2018-11-29T23:32:51.539Z,9.07
2018-11-29T23:35:20.109Z,8.73
2018-11-29T23:37:49.230Z,10.37
2018-11-29T23:40:18.355Z,9.83
2018-11-29T23:42:47.234Z,9.60
2018-11-29T23:45:15.815Z,8.90
2018-11-29T23:47:44.416Z,8.73
2018-11-29T23:50:16.120Z,8.67
2018-11-29T23:52:44.847Z,9.37
2018-11-29T23:55:15.804Z,7.57
2018-11-29T23:57:45.072Z,7.03
